Wallops Island, VA

2:54 PM EST on December 05, 2019 (GMT -0500)
Wallops Flight Facility

Weather History for KWAL - October, 2019

Change the Weather History Date:

Tuesday, October 22, 2019

  Actual Average Record
Temperature  
Mean Temperature 62 °F 57 °F  
Max Temperature 66 °F 66 °F 79 °F (2001)
Min Temperature 57 °F 48 °F 30 °F (1974)
Degree Days  
Heating Degree Days 3    
Month to date heating degree days 74  
Since 1 July heating degree days 83  
Cooling Degree Days 0    
Month to date cooling degree days 53  
Year to date cooling degree days 1800  
Growing Degree Days 12 (Base 50)    
Moisture  
Dew Point 61 °F    
Average Humidity 99    
Maximum Humidity 100    
Minimum Humidity 90    
Precipitation  
Precipitation T in 0.10 in 0.08 in (1997)
Month to date precipitation 7.25 2.22  
Year to date precipitation 41.58 33.59  
Sea Level Pressure  
Sea Level Pressure 29.95 in    
Wind  
Wind Speed 5 mph ()    
Max Wind Speed 18 mph    
Max Gust Speed 22 mph    
Visibility 7.1 miles    
Events Rain    
T = Trace of Precipitation, MM = Missing Value Source: Averaged Metar Reports

Daily Weather History Graph

Daily Weather History Graph

Search for Another Location

Airport or City:

Astronomy

Oct. 22, 2019 Rise Set
Actual Time 7:16 AM EDT 6:15 PM EDT
Civil Twilight 6:50 AM EDT 6:41 PM EDT
Nautical Twilight 6:19 AM EDT 7:12 PM EDT
Astronomical Twilight 5:49 AM EDT 7:42 PM EDT
Moon 12:32 AM EDT (10/22) 3:14 PM EDT (10/22)
Length of Visible Light 11h 51m
Length of Day
10h 58m
Last Quarter, 37% of the Moon is Illuminated
Oct 22
Last Quarter
Oct 27
New
Nov 4
First Quarter
Nov 12
Full
Nov 19
Last Quarter

Hourly Weather History & Observations

Time (EDT) Temp. Dew Point Humidity Pressure Visibility Wind Dir Wind Speed Gust Speed Precip Events Conditions
12:54 AM 57.9 °F 57.9 °F 100% 30.07 in 10.0 mi East 5.8 mph - N/A   Overcast
1:54 AM 57.9 °F 57.9 °F 100% 30.05 in 10.0 mi ESE 5.8 mph - N/A   Overcast
2:02 AM 57.9 °F 57.9 °F 100% 30.06 in 10.0 mi ESE 5.8 mph - N/A   Overcast
2:10 AM 57.9 °F 57.9 °F 100% 30.06 in 10.0 mi East 3.5 mph - N/A   Overcast
2:22 AM 57.9 °F 57.9 °F 100% 30.06 in 10.0 mi ESE 3.5 mph - N/A   Overcast
2:37 AM 61.0 °F 59.0 °F 93% 30.07 in 7.0 mi Calm Calm - N/A   Overcast
2:54 AM 57.9 °F 57.9 °F 100% 30.06 in 3.0 mi Calm Calm - 0.00 in Rain Light Rain
3:03 AM 57.2 °F 57.2 °F 100% 30.06 in 2.5 mi Calm Calm - N/A Rain Light Rain
3:10 AM 57.9 °F 57.9 °F 100% 30.06 in 3.0 mi Calm Calm - 0.00 in Rain Light Rain
3:34 AM 57.9 °F 57.9 °F 100% 30.06 in 3.0 mi Calm Calm - 0.00 in   Overcast
3:54 AM 57.9 °F 57.9 °F 100% 30.04 in 2.5 mi Calm Calm - 0.00 in   Overcast
4:30 AM 57.9 °F 57.9 °F 100% 30.05 in 2.0 mi Calm Calm - N/A   Overcast
4:50 AM 57.2 °F 57.2 °F 100% 30.04 in 2.0 mi NNE 3.5 mph - N/A   Overcast
4:54 AM 57.9 °F 57.9 °F 100% 30.04 in 2.0 mi NNE 3.5 mph - N/A   Overcast
5:09 AM 57.0 °F 57.0 °F 100% 30.04 in 2.5 mi ENE 3.5 mph - N/A   Overcast
5:12 AM 57.0 °F 57.0 °F 100% 30.04 in 3.0 mi ENE 3.5 mph - N/A   Overcast
5:24 AM 57.0 °F 57.0 °F 100% 30.04 in 5.0 mi Calm Calm - N/A   Overcast
5:34 AM 57.0 °F 57.0 °F 100% 30.04 in 5.0 mi ENE 3.5 mph - N/A   Overcast
5:54 AM 57.0 °F 57.0 °F 100% 30.02 in 8.0 mi ENE 4.6 mph - N/A   Overcast
6:10 AM 57.0 °F 57.0 °F 100% 30.03 in 8.0 mi East 3.5 mph - N/A   Overcast
6:41 AM 57.0 °F 57.0 °F 100% 30.03 in 10.0 mi East 3.5 mph - N/A   Overcast
6:54 AM 57.9 °F 57.9 °F 100% 30.02 in 9.0 mi Calm Calm - N/A   Overcast
7:54 AM 57.9 °F 57.9 °F 100% 30.00 in 3.0 mi ESE 3.5 mph - N/A   Overcast
7:58 AM 57.9 °F 57.9 °F 100% 30.01 in 2.0 mi East 3.5 mph - N/A   Overcast
8:07 AM 57.9 °F 57.9 °F 100% 30.01 in 1.2 mi Calm Calm - N/A   Overcast
8:15 AM 57.9 °F 57.9 °F 100% 30.01 in 2.5 mi ESE 3.5 mph - N/A   Overcast
8:23 AM 59.0 °F 59.0 °F 100% 30.02 in 7.0 mi Variable 3.5 mph - N/A   Overcast
8:54 AM 60.1 °F 60.1 °F 100% 30.02 in 10.0 mi SE 3.5 mph - N/A   Overcast
9:17 AM 60.8 °F 60.8 °F 100% 30.02 in 10.0 mi ESE 4.6 mph - N/A   Overcast
9:54 AM 61.0 °F 61.0 °F 100% 30.00 in 10.0 mi ESE 6.9 mph - N/A   Mostly Cloudy
10:42 AM 61.0 °F 61.0 °F 100% 30.02 in 10.0 mi South 6.9 mph - N/A   Overcast
10:51 AM 60.8 °F 60.8 °F 100% 30.01 in 10.0 mi SSE 5.8 mph - N/A   Overcast
10:54 AM 62.1 °F 62.1 °F 100% 30.00 in 10.0 mi SE 6.9 mph - N/A   Overcast
11:16 AM 62.1 °F 62.1 °F 100% 30.00 in 10.0 mi SE 8.1 mph - N/A   Overcast
11:27 AM 63.0 °F 63.0 °F 100% 30.00 in 10.0 mi SE 9.2 mph - N/A   Overcast
11:54 AM 63.0 °F 62.1 °F 97% 29.97 in 10.0 mi SSE 11.5 mph - N/A   Overcast
12:54 PM 64.9 °F 62.1 °F 90% 29.92 in 10.0 mi SE 13.8 mph - N/A   Mostly Cloudy
1:08 PM 64.0 °F 62.1 °F 93% 29.92 in 10.0 mi SE 15.0 mph - N/A   Overcast
1:22 PM 64.0 °F 62.1 °F 93% 29.91 in 10.0 mi SE 12.7 mph - N/A   Overcast
1:33 PM 64.0 °F 62.1 °F 93% 29.91 in 10.0 mi SSE 13.8 mph - N/A   Overcast
1:54 PM 64.0 °F 62.1 °F 93% 29.90 in 10.0 mi SE 11.5 mph - N/A   Overcast
2:18 PM 63.0 °F 63.0 °F 100% 29.89 in 9.0 mi SE 13.8 mph - N/A   Overcast
2:46 PM 63.0 °F 63.0 °F 100% 29.88 in 10.0 mi SSE 9.2 mph 17.3 mph N/A   Overcast
2:54 PM 63.0 °F 63.0 °F 100% 29.87 in 10.0 mi SSE 9.2 mph - N/A   Overcast
3:03 PM 63.0 °F 63.0 °F 100% 29.87 in 9.0 mi SSE 11.5 mph - N/A   Overcast
3:13 PM 63.0 °F 63.0 °F 100% 29.86 in 2.0 mi SSE 11.5 mph - N/A   Overcast
3:15 PM 63.0 °F 63.0 °F 100% 29.86 in 1.5 mi SSE 10.4 mph - N/A   Overcast
3:21 PM 63.0 °F 63.0 °F 100% 29.86 in 0.8 mi SSE 11.5 mph - N/A   Overcast
3:26 PM 63.0 °F 63.0 °F 100% 29.86 in 1.2 mi SSE 11.5 mph - N/A   Overcast
3:30 PM 62.6 °F 62.6 °F 100% 29.86 in 2.5 mi SSE 9.2 mph - N/A   Overcast
3:37 PM 63.0 °F 63.0 °F 100% 29.86 in 9.0 mi SSE 12.7 mph - N/A   Overcast
3:54 PM 63.0 °F 63.0 °F 100% 29.86 in 9.0 mi SSE 6.9 mph - N/A   Overcast
4:13 PM 63.0 °F 63.0 °F 100% 29.86 in 2.0 mi SSE 11.5 mph - N/A   Overcast
4:20 PM 63.0 °F 63.0 °F 100% 29.86 in 1.5 mi SSE 9.2 mph - N/A   Overcast
4:24 PM 63.0 °F 63.0 °F 100% 29.85 in 2.5 mi SSE 11.5 mph - N/A   Overcast
4:31 PM 63.0 °F 63.0 °F 100% 29.85 in 7.0 mi SSE 10.4 mph - N/A   Overcast
4:54 PM 63.0 °F 63.0 °F 100% 29.84 in 10.0 mi SSE 9.2 mph - N/A   Overcast
5:27 PM 63.0 °F 63.0 °F 100% 29.84 in 10.0 mi South 11.5 mph - 0.00 in Rain Light Rain
5:54 PM 63.0 °F 63.0 °F 100% 29.83 in 10.0 mi South 9.2 mph - 0.00 in Rain Light Rain
6:54 PM 64.0 °F 64.0 °F 100% 29.82 in 10.0 mi SSE 10.4 mph - 0.00 in   Overcast
7:54 PM 64.9 °F 64.9 °F 100% 29.82 in 10.0 mi South 12.7 mph - N/A   Overcast
8:19 PM 64.9 °F 64.9 °F 100% 29.81 in 10.0 mi South 10.4 mph - N/A   Overcast
8:28 PM 64.9 °F 64.9 °F 100% 29.81 in 10.0 mi South 17.3 mph - N/A   Mostly Cloudy
8:54 PM 64.9 °F 64.9 °F 100% 29.81 in 10.0 mi South 13.8 mph - N/A   Mostly Cloudy
9:54 PM 66.0 °F 64.9 °F 96% 29.82 in 10.0 mi SSW 13.8 mph - N/A   Overcast
10:54 PM 66.9 °F 66.0 °F 97% 29.81 in 10.0 mi SSW 9.2 mph - N/A   Overcast
11:12 PM 66.9 °F 66.9 °F 100% 29.81 in 10.0 mi WSW 6.9 mph - N/A   Overcast
11:33 PM 66.9 °F 66.9 °F 100% 29.81 in 10.0 mi West 8.1 mph - N/A   Overcast
11:45 PM 66.0 °F 66.0 °F 100% 29.80 in 10.0 mi West 11.5 mph - N/A   Overcast